sensor_id;sensor_type;location;lat;lon;timestamp;P1;durP1;ratioP1;P2;durP2;ratioP2
54539;SDS011;40438;52.992;18.604;2022-11-12T00:01:21;14.65;;;6.68;;
54539;SDS011;40438;52.992;18.604;2022-11-12T00:04:05;11.95;;;6.70;;
54539;SDS011;40438;52.992;18.604;2022-11-12T00:06:51;15.88;;;6.80;;
54539;SDS011;40438;52.992;18.604;2022-11-12T00:09:35;17.63;;;8.07;;
54539;SDS011;40438;52.992;18.604;2022-11-12T00:12:20;22.10;;;8.02;;
54539;SDS011;40438;52.992;18.604;2022-11-12T00:15:05;14.45;;;8.00;;
54539;SDS011;40438;52.992;18.604;2022-11-12T00:17:49;18.15;;;7.05;;
54539;SDS011;40438;52.992;18.604;2022-11-12T00:20:34;15.27;;;6.90;;
54539;SDS011;40438;52.992;18.604;2022-11-12T00:23:20;17.55;;;8.52;;
54539;SDS011;40438;52.992;18.604;2022-11-12T00:26:04;17.52;;;7.13;;
54539;SDS011;40438;52.992;18.604;2022-11-12T00:28:48;14.98;;;7.40;;
54539;SDS011;40438;52.992;18.604;2022-11-12T00:31:33;15.27;;;7.00;;
54539;SDS011;40438;52.992;18.604;2022-11-12T00:34:17;16.88;;;7.85;;
54539;SDS011;40438;52.992;18.604;2022-11-12T00:37:02;15.05;;;7.20;;
54539;SDS011;40438;52.992;18.604;2022-11-12T00:39:48;20.95;;;8.35;;
54539;SDS011;40438;52.992;18.604;2022-11-12T00:42:32;19.02;;;7.65;;
54539;SDS011;40438;52.992;18.604;2022-11-12T00:45:17;18.77;;;8.90;;
54539;SDS011;40438;52.992;18.604;2022-11-12T00:48:01;21.85;;;9.35;;
54539;SDS011;40438;52.992;18.604;2022-11-12T00:50:45;18.42;;;9.13;;
54539;SDS011;40438;52.992;18.604;2022-11-12T00:53:30;14.60;;;7.47;;
54539;SDS011;40438;52.992;18.604;2022-11-12T00:56:16;19.42;;;8.82;;
54539;SDS011;40438;52.992;18.604;2022-11-12T00:59:00;18.25;;;8.02;;
54539;SDS011;40438;52.992;18.604;2022-11-12T01:01:44;20.48;;;8.35;;
54539;SDS011;40438;52.992;18.604;2022-11-12T01:04:29;16.50;;;7.68;;
54539;SDS011;40438;52.992;18.604;2022-11-12T01:07:13;14.82;;;7.65;;
54539;SDS011;40438;52.992;18.604;2022-11-12T01:09:58;14.38;;;7.32;;
54539;SDS011;40438;52.992;18.604;2022-11-12T01:12:43;16.30;;;8.43;;
54539;SDS011;40438;52.992;18.604;2022-11-12T01:15:27;13.63;;;7.63;;
54539;SDS011;40438;52.992;18.604;2022-11-12T01:18:12;14.80;;;7.30;;
54539;SDS011;40438;52.992;18.604;2022-11-12T01:20:58;15.80;;;7.68;;
54539;SDS011;40438;52.992;18.604;2022-11-12T01:23:43;18.27;;;7.78;;
54539;SDS011;40438;52.992;18.604;2022-11-12T01:26:27;14.68;;;7.18;;
54539;SDS011;40438;52.992;18.604;2022-11-12T01:29:13;11.73;;;7.05;;
54539;SDS011;40438;52.992;18.604;2022-11-12T01:31:57;16.65;;;8.05;;
54539;SDS011;40438;52.992;18.604;2022-11-12T01:34:41;14.38;;;7.38;;
54539;SDS011;40438;52.992;18.604;2022-11-12T01:37:26;17.60;;;8.23;;
54539;SDS011;40438;52.992;18.604;2022-11-12T01:40:11;18.52;;;8.82;;
54539;SDS011;40438;52.992;18.604;2022-11-12T01:42:55;15.48;;;7.53;;
54539;SDS011;40438;52.992;18.604;2022-11-12T01:45:41;16.10;;;7.85;;
54539;SDS011;40438;52.992;18.604;2022-11-12T01:48:31;17.45;;;8.15;;
54539;SDS011;40438;52.992;18.604;2022-11-12T01:51:18;17.52;;;8.38;;
54539;SDS011;40438;52.992;18.604;2022-11-12T01:54:06;14.35;;;7.20;;
54539;SDS011;40438;52.992;18.604;2022-11-12T01:56:53;16.08;;;7.85;;
54539;SDS011;40438;52.992;18.604;2022-11-12T01:59:40;15.40;;;7.47;;
54539;SDS011;40438;52.992;18.604;2022-11-12T02:02:29;13.27;;;7.82;;
54539;SDS011;40438;52.992;18.604;2022-11-12T02:05:13;17.23;;;8.13;;
54539;SDS011;40438;52.992;18.604;2022-11-12T02:07:59;15.77;;;7.65;;
54539;SDS011;40438;52.992;18.604;2022-11-12T02:10:45;18.88;;;9.55;;
54539;SDS011;40438;52.992;18.604;2022-11-12T02:13:29;18.25;;;9.15;;
54539;SDS011;40438;52.992;18.604;2022-11-12T02:16:14;20.67;;;9.38;;
54539;SDS011;40438;52.992;18.604;2022-11-12T02:19:00;15.88;;;8.60;;
54539;SDS011;40438;52.992;18.604;2022-11-12T02:21:46;19.90;;;8.63;;
54539;SDS011;40438;52.992;18.604;2022-11-12T02:24:30;14.85;;;7.78;;
54539;SDS011;40438;52.992;18.604;2022-11-12T02:27:17;15.30;;;8.15;;
54539;SDS011;40438;52.992;18.604;2022-11-12T02:30:01;19.45;;;8.98;;
54539;SDS011;40438;52.992;18.604;2022-11-12T02:32:45;17.92;;;9.13;;
54539;SDS011;40438;52.992;18.604;2022-11-12T02:35:30;16.45;;;8.23;;
54539;SDS011;40438;52.992;18.604;2022-11-12T02:38:16;19.10;;;9.48;;
54539;SDS011;40438;52.992;18.604;2022-11-12T02:41:00;18.88;;;9.55;;
54539;SDS011;40438;52.992;18.604;2022-11-12T02:43:45;17.25;;;8.57;;
54539;SDS011;40438;52.992;18.604;2022-11-12T02:46:29;20.75;;;9.23;;
54539;SDS011;40438;52.992;18.604;2022-11-12T02:49:14;22.60;;;9.02;;
54539;SDS011;40438;52.992;18.604;2022-11-12T02:51:58;16.25;;;8.30;;
54539;SDS011;40438;52.992;18.604;2022-11-12T02:54:44;20.33;;;8.90;;
54539;SDS011;40438;52.992;18.604;2022-11-12T02:57:28;18.73;;;8.48;;
54539;SDS011;40438;52.992;18.604;2022-11-12T03:00:13;16.17;;;8.15;;
54539;SDS011;40438;52.992;18.604;2022-11-12T03:02:57;20.80;;;8.25;;
54539;SDS011;40438;52.992;18.604;2022-11-12T03:05:42;17.38;;;8.57;;
54539;SDS011;40438;52.992;18.604;2022-11-12T03:08:27;18.05;;;7.93;;
54539;SDS011;40438;52.992;18.604;2022-11-12T03:11:13;21.23;;;9.18;;
54539;SDS011;40438;52.992;18.604;2022-11-12T03:14:00;21.65;;;8.57;;
54539;SDS011;40438;52.992;18.604;2022-11-12T03:16:44;24.70;;;9.25;;
54539;SDS011;40438;52.992;18.604;2022-11-12T03:19:29;22.98;;;9.40;;
54539;SDS011;40438;52.992;18.604;2022-11-12T03:22:13;22.27;;;8.15;;
54539;SDS011;40438;52.992;18.604;2022-11-12T03:24:57;18.73;;;9.00;;
54539;SDS011;40438;52.992;18.604;2022-11-12T03:27:43;21.52;;;8.85;;
54539;SDS011;40438;52.992;18.604;2022-11-12T03:30:28;22.35;;;8.88;;
54539;SDS011;40438;52.992;18.604;2022-11-12T03:33:14;19.50;;;8.82;;
54539;SDS011;40438;52.992;18.604;2022-11-12T03:35:59;23.20;;;9.65;;
54539;SDS011;40438;52.992;18.604;2022-11-12T03:38:43;19.80;;;8.88;;
54539;SDS011;40438;52.992;18.604;2022-11-12T03:41:28;23.80;;;9.77;;
54539;SDS011;40438;52.992;18.604;2022-11-12T03:44:14;21.77;;;9.52;;
54539;SDS011;40438;52.992;18.604;2022-11-12T03:46:58;22.15;;;8.98;;
54539;SDS011;40438;52.992;18.604;2022-11-12T03:49:42;23.83;;;10.52;;
54539;SDS011;40438;52.992;18.604;2022-11-12T03:52:26;21.52;;;9.63;;
54539;SDS011;40438;52.992;18.604;2022-11-12T03:55:11;24.13;;;10.38;;
54539;SDS011;40438;52.992;18.604;2022-11-12T03:57:56;22.27;;;10.30;;
54539;SDS011;40438;52.992;18.604;2022-11-12T04:00:43;22.00;;;9.32;;
54539;SDS011;40438;52.992;18.604;2022-11-12T04:03:27;22.27;;;9.82;;
54539;SDS011;40438;52.992;18.604;2022-11-12T04:06:11;21.30;;;9.02;;
54539;SDS011;40438;52.992;18.604;2022-11-12T04:08:56;19.63;;;9.02;;
54539;SDS011;40438;52.992;18.604;2022-11-12T04:11:40;19.63;;;9.70;;
54539;SDS011;40438;52.992;18.604;2022-11-12T04:14:25;21.00;;;9.27;;
54539;SDS011;40438;52.992;18.604;2022-11-12T04:17:11;23.73;;;10.07;;
54539;SDS011;40438;52.992;18.604;2022-11-12T04:19:55;20.48;;;10.00;;
54539;SDS011;40438;52.992;18.604;2022-11-12T04:22:39;20.88;;;9.30;;
54539;SDS011;40438;52.992;18.604;2022-11-12T04:25:24;20.67;;;9.82;;
54539;SDS011;40438;52.992;18.604;2022-11-12T04:28:08;19.98;;;8.27;;
54539;SDS011;40438;52.992;18.604;2022-11-12T04:30:53;17.63;;;7.38;;
54539;SDS011;40438;52.992;18.604;2022-11-12T04:33:38;22.23;;;8.65;;
54539;SDS011;40438;52.992;18.604;2022-11-12T04:36:22;15.98;;;8.10;;
54539;SDS011;40438;52.992;18.604;2022-11-12T04:39:07;15.50;;;7.95;;
54539;SDS011;40438;52.992;18.604;2022-11-12T04:41:51;16.80;;;9.15;;
54539;SDS011;40438;52.992;18.604;2022-11-12T04:44:36;20.02;;;7.72;;
54539;SDS011;40438;52.992;18.604;2022-11-12T04:47:20;14.93;;;7.35;;
54539;SDS011;40438;52.992;18.604;2022-11-12T04:50:09;15.40;;;8.32;;
54539;SDS011;40438;52.992;18.604;2022-11-12T04:52:57;15.80;;;7.57;;
54539;SDS011;40438;52.992;18.604;2022-11-12T04:55:41;14.50;;;7.70;;
54539;SDS011;40438;52.992;18.604;2022-11-12T04:58:26;18.17;;;8.63;;
54539;SDS011;40438;52.992;18.604;2022-11-12T05:01:10;17.13;;;7.97;;
54539;SDS011;40438;52.992;18.604;2022-11-12T05:03:55;16.85;;;8.68;;
54539;SDS011;40438;52.992;18.604;2022-11-12T05:06:40;16.63;;;7.95;;
54539;SDS011;40438;52.992;18.604;2022-11-12T05:09:25;18.45;;;8.57;;
54539;SDS011;40438;52.992;18.604;2022-11-12T05:12:10;17.35;;;8.00;;
54539;SDS011;40438;52.992;18.604;2022-11-12T05:14:55;15.65;;;8.23;;
54539;SDS011;40438;52.992;18.604;2022-11-12T05:17:41;16.33;;;8.15;;
54539;SDS011;40438;52.992;18.604;2022-11-12T05:20:25;17.90;;;8.25;;
54539;SDS011;40438;52.992;18.604;2022-11-12T05:23:11;16.10;;;8.15;;
54539;SDS011;40438;52.992;18.604;2022-11-12T05:25:55;18.65;;;8.38;;
54539;SDS011;40438;52.992;18.604;2022-11-12T05:28:39;16.80;;;7.90;;
54539;SDS011;40438;52.992;18.604;2022-11-12T05:31:24;17.17;;;7.72;;
54539;SDS011;40438;52.992;18.604;2022-11-12T05:34:08;19.83;;;8.65;;
54539;SDS011;40438;52.992;18.604;2022-11-12T05:36:53;16.77;;;8.20;;
54539;SDS011;40438;52.992;18.604;2022-11-12T05:39:39;14.55;;;7.82;;
54539;SDS011;40438;52.992;18.604;2022-11-12T05:42:23;13.82;;;7.10;;
54539;SDS011;40438;52.992;18.604;2022-11-12T05:45:08;16.15;;;8.55;;
54539;SDS011;40438;52.992;18.604;2022-11-12T05:47:52;20.45;;;7.80;;
54539;SDS011;40438;52.992;18.604;2022-11-12T05:50:37;19.05;;;8.18;;
54539;SDS011;40438;52.992;18.604;2022-11-12T05:53:21;17.85;;;7.63;;
54539;SDS011;40438;52.992;18.604;2022-11-12T05:56:08;16.13;;;7.90;;
54539;SDS011;40438;52.992;18.604;2022-11-12T05:58:53;16.77;;;8.07;;
54539;SDS011;40438;52.992;18.604;2022-11-12T06:01:37;18.38;;;8.23;;
54539;SDS011;40438;52.992;18.604;2022-11-12T06:04:22;18.70;;;8.43;;
54539;SDS011;40438;52.992;18.604;2022-11-12T06:07:07;16.75;;;7.55;;
54539;SDS011;40438;52.992;18.604;2022-11-12T06:09:51;18.13;;;7.97;;
54539;SDS011;40438;52.992;18.604;2022-11-12T06:12:37;20.15;;;8.82;;
54539;SDS011;40438;52.992;18.604;2022-11-12T06:15:22;18.00;;;7.78;;
54539;SDS011;40438;52.992;18.604;2022-11-12T06:18:07;16.10;;;7.47;;
54539;SDS011;40438;52.992;18.604;2022-11-12T06:20:51;17.42;;;7.93;;
54539;SDS011;40438;52.992;18.604;2022-11-12T06:23:35;16.00;;;7.63;;
54539;SDS011;40438;52.992;18.604;2022-11-12T06:26:20;14.23;;;7.70;;
54539;SDS011;40438;52.992;18.604;2022-11-12T06:29:09;13.75;;;7.07;;
54539;SDS011;40438;52.992;18.604;2022-11-12T06:31:53;13.82;;;6.85;;
54539;SDS011;40438;52.992;18.604;2022-11-12T06:34:38;14.95;;;7.60;;
54539;SDS011;40438;52.992;18.604;2022-11-12T06:37:22;18.15;;;8.20;;
54539;SDS011;40438;52.992;18.604;2022-11-12T06:40:07;17.00;;;8.00;;
54539;SDS011;40438;52.992;18.604;2022-11-12T06:42:55;17.65;;;8.00;;
54539;SDS011;40438;52.992;18.604;2022-11-12T06:45:41;16.70;;;8.05;;
54539;SDS011;40438;52.992;18.604;2022-11-12T06:48:25;16.48;;;7.85;;
54539;SDS011;40438;52.992;18.604;2022-11-12T06:51:10;18.23;;;7.75;;
54539;SDS011;40438;52.992;18.604;2022-11-12T06:53:58;17.20;;;8.02;;
54539;SDS011;40438;52.992;18.604;2022-11-12T06:56:43;17.10;;;7.45;;
54539;SDS011;40438;52.992;18.604;2022-11-12T06:59:27;17.33;;;7.70;;
54539;SDS011;40438;52.992;18.604;2022-11-12T07:02:13;13.63;;;7.03;;
54539;SDS011;40438;52.992;18.604;2022-11-12T07:04:57;16.23;;;7.22;;
54539;SDS011;40438;52.992;18.604;2022-11-12T07:07:42;16.48;;;7.45;;
54539;SDS011;40438;52.992;18.604;2022-11-12T07:10:26;14.10;;;6.93;;
54539;SDS011;40438;52.992;18.604;2022-11-12T07:13:11;17.10;;;6.97;;
54539;SDS011;40438;52.992;18.604;2022-11-12T07:15:55;15.27;;;6.88;;
54539;SDS011;40438;52.992;18.604;2022-11-12T07:18:41;15.25;;;5.82;;
54539;SDS011;40438;52.992;18.604;2022-11-12T07:21:25;13.85;;;6.40;;
54539;SDS011;40438;52.992;18.604;2022-11-12T07:24:10;14.70;;;6.70;;
54539;SDS011;40438;52.992;18.604;2022-11-12T07:26:54;14.35;;;6.47;;
54539;SDS011;40438;52.992;18.604;2022-11-12T07:29:39;14.25;;;6.93;;
54539;SDS011;40438;52.992;18.604;2022-11-12T07:32:23;12.35;;;6.13;;
54539;SDS011;40438;52.992;18.604;2022-11-12T07:35:09;13.52;;;6.63;;
54539;SDS011;40438;52.992;18.604;2022-11-12T07:37:53;15.10;;;6.90;;
54539;SDS011;40438;52.992;18.604;2022-11-12T07:40:37;12.85;;;5.90;;
54539;SDS011;40438;52.992;18.604;2022-11-12T07:43:22;11.07;;;5.47;;
54539;SDS011;40438;52.992;18.604;2022-11-12T07:46:07;27.25;;;7.03;;
54539;SDS011;40438;52.992;18.604;2022-11-12T07:48:53;14.02;;;7.10;;
54539;SDS011;40438;52.992;18.604;2022-11-12T07:51:39;13.57;;;6.70;;
54539;SDS011;40438;52.992;18.604;2022-11-12T07:54:23;13.30;;;6.95;;
54539;SDS011;40438;52.992;18.604;2022-11-12T07:57:07;15.68;;;6.57;;
54539;SDS011;40438;52.992;18.604;2022-11-12T07:59:52;14.77;;;6.55;;
54539;SDS011;40438;52.992;18.604;2022-11-12T08:02:36;11.80;;;6.28;;
54539;SDS011;40438;52.992;18.604;2022-11-12T08:05:21;14.90;;;7.60;;
54539;SDS011;40438;52.992;18.604;2022-11-12T08:08:07;14.32;;;6.78;;
54539;SDS011;40438;52.992;18.604;2022-11-12T08:10:53;15.52;;;6.82;;
54539;SDS011;40438;52.992;18.604;2022-11-12T08:13:37;15.60;;;6.47;;
54539;SDS011;40438;52.992;18.604;2022-11-12T08:16:22;18.98;;;7.10;;
54539;SDS011;40438;52.992;18.604;2022-11-12T08:19:07;14.45;;;6.38;;
54539;SDS011;40438;52.992;18.604;2022-11-12T08:21:51;13.25;;;6.68;;
54539;SDS011;40438;52.992;18.604;2022-11-12T08:24:37;15.93;;;7.25;;
54539;SDS011;40438;52.992;18.604;2022-11-12T08:27:21;17.45;;;6.07;;
54539;SDS011;40438;52.992;18.604;2022-11-12T08:30:06;14.75;;;7.53;;
54539;SDS011;40438;52.992;18.604;2022-11-12T08:32:55;18.60;;;7.93;;
54539;SDS011;40438;52.992;18.604;2022-11-12T08:35:40;17.52;;;7.35;;
54539;SDS011;40438;52.992;18.604;2022-11-12T08:38:24;16.83;;;7.72;;
54539;SDS011;40438;52.992;18.604;2022-11-12T08:41:11;18.15;;;8.48;;
54539;SDS011;40438;52.992;18.604;2022-11-12T08:43:56;21.90;;;8.50;;
54539;SDS011;40438;52.992;18.604;2022-11-12T08:46:41;23.40;;;8.50;;
54539;SDS011;40438;52.992;18.604;2022-11-12T08:49:25;15.35;;;7.28;;
54539;SDS011;40438;52.992;18.604;2022-11-12T08:52:09;21.35;;;8.10;;
54539;SDS011;40438;52.992;18.604;2022-11-12T08:54:54;18.95;;;8.48;;
54539;SDS011;40438;52.992;18.604;2022-11-12T08:57:40;21.17;;;8.50;;
54539;SDS011;40438;52.992;18.604;2022-11-12T09:00:25;20.67;;;8.95;;
54539;SDS011;40438;52.992;18.604;2022-11-12T09:03:12;20.80;;;8.90;;
54539;SDS011;40438;52.992;18.604;2022-11-12T09:06:00;19.15;;;8.75;;
54539;SDS011;40438;52.992;18.604;2022-11-12T09:08:46;19.88;;;8.70;;
54539;SDS011;40438;52.992;18.604;2022-11-12T09:11:30;19.20;;;8.90;;
54539;SDS011;40438;52.992;18.604;2022-11-12T09:14:16;18.23;;;9.00;;
54539;SDS011;40438;52.992;18.604;2022-11-12T09:17:00;16.02;;;7.82;;
54539;SDS011;40438;52.992;18.604;2022-11-12T09:19:45;18.88;;;9.10;;
54539;SDS011;40438;52.992;18.604;2022-11-12T09:22:29;16.85;;;8.25;;
54539;SDS011;40438;52.992;18.604;2022-11-12T09:25:14;20.50;;;8.90;;
54539;SDS011;40438;52.992;18.604;2022-11-12T09:28:04;17.08;;;7.45;;
54539;SDS011;40438;52.992;18.604;2022-11-12T09:30:51;16.45;;;8.10;;
54539;SDS011;40438;52.992;18.604;2022-11-12T09:33:36;19.63;;;8.52;;
54539;SDS011;40438;52.992;18.604;2022-11-12T09:36:21;18.00;;;7.93;;
54539;SDS011;40438;52.992;18.604;2022-11-12T09:39:05;18.95;;;8.30;;
54539;SDS011;40438;52.992;18.604;2022-11-12T09:41:49;17.83;;;8.68;;
54539;SDS011;40438;52.992;18.604;2022-11-12T09:44:34;18.08;;;7.32;;
54539;SDS011;40438;52.992;18.604;2022-11-12T09:47:22;17.38;;;7.70;;
54539;SDS011;40438;52.992;18.604;2022-11-12T09:50:15;16.15;;;7.72;;
54539;SDS011;40438;52.992;18.604;2022-11-12T09:55:54;17.33;;;6.95;;
54539;SDS011;40438;52.992;18.604;2022-11-12T09:58:39;14.27;;;6.32;;
54539;SDS011;40438;52.992;18.604;2022-11-12T10:01:26;13.30;;;6.45;;
54539;SDS011;40438;52.992;18.604;2022-11-12T10:04:39;14.70;;;6.43;;
54539;SDS011;40438;52.992;18.604;2022-11-12T10:10:39;11.98;;;5.65;;
54539;SDS011;40438;52.992;18.604;2022-11-12T10:13:31;14.23;;;6.53;;
54539;SDS011;40438;52.992;18.604;2022-11-12T10:16:31;17.52;;;7.05;;
54539;SDS011;40438;52.992;18.604;2022-11-12T10:19:34;14.07;;;6.40;;
54539;SDS011;40438;52.992;18.604;2022-11-12T10:22:34;20.63;;;6.38;;
54539;SDS011;40438;52.992;18.604;2022-11-12T10:25:32;15.20;;;5.90;;
54539;SDS011;40438;52.992;18.604;2022-11-12T10:28:21;14.18;;;6.70;;
54539;SDS011;40438;52.992;18.604;2022-11-12T10:31:10;17.02;;;6.57;;
54539;SDS011;40438;52.992;18.604;2022-11-12T10:34:01;18.85;;;7.70;;
54539;SDS011;40438;52.992;18.604;2022-11-12T10:37:00;15.05;;;6.88;;
54539;SDS011;40438;52.992;18.604;2022-11-12T10:39:47;15.00;;;5.93;;
54539;SDS011;40438;52.992;18.604;2022-11-12T10:42:32;15.52;;;6.45;;
54539;SDS011;40438;52.992;18.604;2022-11-12T10:45:18;12.25;;;6.15;;
54539;SDS011;40438;52.992;18.604;2022-11-12T10:48:04;13.82;;;6.38;;
54539;SDS011;40438;52.992;18.604;2022-11-12T10:51:03;11.73;;;5.85;;
54539;SDS011;40438;52.992;18.604;2022-11-12T10:57:20;17.63;;;6.30;;
54539;SDS011;40438;52.992;18.604;2022-11-12T11:00:13;15.15;;;5.93;;
54539;SDS011;40438;52.992;18.604;2022-11-12T11:03:00;16.37;;;6.70;;
54539;SDS011;40438;52.992;18.604;2022-11-12T11:05:47;16.48;;;6.30;;
54539;SDS011;40438;52.992;18.604;2022-11-12T11:08:36;15.10;;;6.50;;
54539;SDS011;40438;52.992;18.604;2022-11-12T11:11:24;15.95;;;6.65;;
54539;SDS011;40438;52.992;18.604;2022-11-12T11:14:23;13.13;;;6.28;;
54539;SDS011;40438;52.992;18.604;2022-11-12T11:17:13;19.40;;;7.35;;
54539;SDS011;40438;52.992;18.604;2022-11-12T11:20:00;15.60;;;6.38;;
54539;SDS011;40438;52.992;18.604;2022-11-12T11:22:45;12.68;;;6.35;;
54539;SDS011;40438;52.992;18.604;2022-11-12T11:25:32;16.40;;;6.15;;
54539;SDS011;40438;52.992;18.604;2022-11-12T11:28:20;13.77;;;6.05;;
54539;SDS011;40438;52.992;18.604;2022-11-12T11:31:18;14.15;;;5.50;;
54539;SDS011;40438;52.992;18.604;2022-11-12T11:34:11;15.25;;;6.20;;
54539;SDS011;40438;52.992;18.604;2022-11-12T11:37:07;13.20;;;5.75;;
54539;SDS011;40438;52.992;18.604;2022-11-12T11:40:08;13.80;;;5.97;;
54539;SDS011;40438;52.992;18.604;2022-11-12T11:43:08;14.55;;;6.05;;
54539;SDS011;40438;52.992;18.604;2022-11-12T11:46:11;16.52;;;5.75;;
54539;SDS011;40438;52.992;18.604;2022-11-12T11:55:28;8.90;;;4.97;;
54539;SDS011;40438;52.992;18.604;2022-11-12T11:58:32;12.15;;;4.55;;
54539;SDS011;40438;52.992;18.604;2022-11-12T12:01:32;12.35;;;6.00;;
54539;SDS011;40438;52.992;18.604;2022-11-12T12:04:39;12.85;;;5.57;;
54539;SDS011;40438;52.992;18.604;2022-11-12T12:07:29;12.02;;;5.03;;
54539;SDS011;40438;52.992;18.604;2022-11-12T12:10:21;10.82;;;5.32;;
54539;SDS011;40438;52.992;18.604;2022-11-12T12:13:08;13.70;;;5.68;;
54539;SDS011;40438;52.992;18.604;2022-11-12T12:16:10;14.30;;;5.53;;
54539;SDS011;40438;52.992;18.604;2022-11-12T12:19:17;10.55;;;5.47;;
54539;SDS011;40438;52.992;18.604;2022-11-12T12:22:12;10.20;;;4.90;;
54539;SDS011;40438;52.992;18.604;2022-11-12T12:25:01;14.60;;;5.63;;
54539;SDS011;40438;52.992;18.604;2022-11-12T12:27:52;11.00;;;5.65;;
54539;SDS011;40438;52.992;18.604;2022-11-12T12:30:43;13.30;;;4.85;;
54539;SDS011;40438;52.992;18.604;2022-11-12T12:33:31;11.32;;;5.60;;
54539;SDS011;40438;52.992;18.604;2022-11-12T12:36:22;8.63;;;4.57;;
54539;SDS011;40438;52.992;18.604;2022-11-12T12:39:11;10.07;;;5.20;;
54539;SDS011;40438;52.992;18.604;2022-11-12T12:41:58;12.93;;;5.60;;
54539;SDS011;40438;52.992;18.604;2022-11-12T12:44:49;11.43;;;5.03;;
54539;SDS011;40438;52.992;18.604;2022-11-12T12:47:38;8.52;;;4.43;;
54539;SDS011;40438;52.992;18.604;2022-11-12T12:50:25;8.43;;;4.22;;
54539;SDS011;40438;52.992;18.604;2022-11-12T12:53:21;10.38;;;4.70;;
54539;SDS011;40438;52.992;18.604;2022-11-12T12:59:27;12.73;;;4.78;;
54539;SDS011;40438;52.992;18.604;2022-11-12T13:02:12;8.90;;;4.32;;
54539;SDS011;40438;52.992;18.604;2022-11-12T13:05:03;10.07;;;4.70;;
54539;SDS011;40438;52.992;18.604;2022-11-12T13:07:48;11.63;;;4.82;;
54539;SDS011;40438;52.992;18.604;2022-11-12T13:13:34;12.63;;;4.90;;
54539;SDS011;40438;52.992;18.604;2022-11-12T13:19:46;10.77;;;4.82;;
54539;SDS011;40438;52.992;18.604;2022-11-12T13:23:00;11.10;;;4.47;;
54539;SDS011;40438;52.992;18.604;2022-11-12T13:25:45;12.98;;;4.63;;
54539;SDS011;40438;52.992;18.604;2022-11-12T13:28:31;9.80;;;4.50;;
54539;SDS011;40438;52.992;18.604;2022-11-12T13:31:23;11.20;;;4.28;;
54539;SDS011;40438;52.992;18.604;2022-11-12T13:34:16;9.32;;;4.70;;
54539;SDS011;40438;52.992;18.604;2022-11-12T13:37:04;9.73;;;4.57;;
54539;SDS011;40438;52.992;18.604;2022-11-12T13:39:49;11.63;;;4.60;;
54539;SDS011;40438;52.992;18.604;2022-11-12T13:42:34;14.93;;;4.72;;
54539;SDS011;40438;52.992;18.604;2022-11-12T13:45:20;12.18;;;5.03;;
54539;SDS011;40438;52.992;18.604;2022-11-12T13:48:06;8.95;;;4.63;;
54539;SDS011;40438;52.992;18.604;2022-11-12T13:50:55;8.88;;;4.78;;
54539;SDS011;40438;52.992;18.604;2022-11-12T13:53:42;12.52;;;5.13;;
54539;SDS011;40438;52.992;18.604;2022-11-12T13:56:28;12.98;;;4.47;;
54539;SDS011;40438;52.992;18.604;2022-11-12T13:59:14;12.13;;;5.13;;
54539;SDS011;40438;52.992;18.604;2022-11-12T14:02:02;15.82;;;4.53;;
54539;SDS011;40438;52.992;18.604;2022-11-12T14:04:48;11.30;;;4.90;;
54539;SDS011;40438;52.992;18.604;2022-11-12T14:07:35;9.93;;;4.70;;
54539;SDS011;40438;52.992;18.604;2022-11-12T14:10:30;15.43;;;5.32;;
54539;SDS011;40438;52.992;18.604;2022-11-12T14:13:22;11.07;;;4.95;;
54539;SDS011;40438;52.992;18.604;2022-11-12T14:16:21;12.40;;;4.70;;
54539;SDS011;40438;52.992;18.604;2022-11-12T14:19:25;23.70;;;5.10;;
54539;SDS011;40438;52.992;18.604;2022-11-12T14:22:25;11.45;;;5.28;;
54539;SDS011;40438;52.992;18.604;2022-11-12T14:25:19;12.88;;;5.15;;
54539;SDS011;40438;52.992;18.604;2022-11-12T14:28:04;12.82;;;6.60;;
54539;SDS011;40438;52.992;18.604;2022-11-12T14:31:09;15.40;;;5.40;;
54539;SDS011;40438;52.992;18.604;2022-11-12T14:33:55;12.30;;;6.05;;
54539;SDS011;40438;52.992;18.604;2022-11-12T14:36:41;14.25;;;6.07;;
54539;SDS011;40438;52.992;18.604;2022-11-12T14:39:27;13.90;;;5.72;;
54539;SDS011;40438;52.992;18.604;2022-11-12T14:42:13;15.40;;;6.38;;
54539;SDS011;40438;52.992;18.604;2022-11-12T14:44:58;12.77;;;5.80;;
54539;SDS011;40438;52.992;18.604;2022-11-12T14:47:42;14.25;;;6.82;;
54539;SDS011;40438;52.992;18.604;2022-11-12T14:50:28;13.80;;;6.82;;
54539;SDS011;40438;52.992;18.604;2022-11-12T14:53:18;14.98;;;5.75;;
54539;SDS011;40438;52.992;18.604;2022-11-12T14:56:06;13.52;;;5.88;;
54539;SDS011;40438;52.992;18.604;2022-11-12T14:58:54;12.60;;;5.82;;
54539;SDS011;40438;52.992;18.604;2022-11-12T15:01:40;14.88;;;5.80;;
54539;SDS011;40438;52.992;18.604;2022-11-12T15:04:49;13.32;;;6.53;;
54539;SDS011;40438;52.992;18.604;2022-11-12T15:07:49;12.57;;;6.00;;
54539;SDS011;40438;52.992;18.604;2022-11-12T15:10:37;13.05;;;5.95;;
54539;SDS011;40438;52.992;18.604;2022-11-12T15:13:23;14.15;;;6.82;;
54539;SDS011;40438;52.992;18.604;2022-11-12T15:16:09;17.75;;;6.30;;
54539;SDS011;40438;52.992;18.604;2022-11-12T15:19:02;18.15;;;8.77;;
54539;SDS011;40438;52.992;18.604;2022-11-12T15:21:50;18.17;;;8.23;;
54539;SDS011;40438;52.992;18.604;2022-11-12T15:24:36;22.05;;;8.50;;
54539;SDS011;40438;52.992;18.604;2022-11-12T15:27:33;25.98;;;9.93;;
54539;SDS011;40438;52.992;18.604;2022-11-12T15:30:20;22.48;;;9.80;;
54539;SDS011;40438;52.992;18.604;2022-11-12T15:33:06;25.65;;;9.30;;
54539;SDS011;40438;52.992;18.604;2022-11-12T15:35:59;24.52;;;11.02;;
54539;SDS011;40438;52.992;18.604;2022-11-12T15:38:46;23.95;;;10.57;;
54539;SDS011;40438;52.992;18.604;2022-11-12T15:41:31;26.55;;;10.25;;
54539;SDS011;40438;52.992;18.604;2022-11-12T15:44:18;23.85;;;11.70;;
54539;SDS011;40438;52.992;18.604;2022-11-12T15:47:02;24.67;;;11.15;;
54539;SDS011;40438;52.992;18.604;2022-11-12T15:49:47;19.10;;;10.15;;
54539;SDS011;40438;52.992;18.604;2022-11-12T15:52:32;18.48;;;8.98;;
54539;SDS011;40438;52.992;18.604;2022-11-12T15:55:17;18.85;;;8.38;;
54539;SDS011;40438;52.992;18.604;2022-11-12T15:58:01;18.00;;;9.13;;
54539;SDS011;40438;52.992;18.604;2022-11-12T16:00:48;22.05;;;9.85;;
54539;SDS011;40438;52.992;18.604;2022-11-12T16:03:32;27.58;;;10.60;;
54539;SDS011;40438;52.992;18.604;2022-11-12T16:06:16;25.33;;;9.90;;
54539;SDS011;40438;52.992;18.604;2022-11-12T16:09:01;20.42;;;10.25;;
54539;SDS011;40438;52.992;18.604;2022-11-12T16:11:46;21.67;;;10.88;;
54539;SDS011;40438;52.992;18.604;2022-11-12T16:14:32;22.15;;;11.32;;
54539;SDS011;40438;52.992;18.604;2022-11-12T16:17:18;18.10;;;9.55;;
54539;SDS011;40438;52.992;18.604;2022-11-12T16:20:04;22.95;;;9.25;;
54539;SDS011;40438;52.992;18.604;2022-11-12T16:22:54;23.30;;;10.50;;
54539;SDS011;40438;52.992;18.604;2022-11-12T16:25:39;19.73;;;10.32;;
54539;SDS011;40438;52.992;18.604;2022-11-12T16:28:25;21.65;;;10.38;;
54539;SDS011;40438;52.992;18.604;2022-11-12T16:31:09;19.80;;;9.50;;
54539;SDS011;40438;52.992;18.604;2022-11-12T16:33:56;19.80;;;8.98;;
54539;SDS011;40438;52.992;18.604;2022-11-12T16:36:40;18.52;;;9.25;;
54539;SDS011;40438;52.992;18.604;2022-11-12T16:39:24;19.48;;;9.70;;
54539;SDS011;40438;52.992;18.604;2022-11-12T16:42:09;22.42;;;9.48;;